sensor_id;sensor_type;location;lat;lon;timestamp;P1;durP1;ratioP1;P2;durP2;ratioP2
7813;SDS011;3952;48.364;16.022;2023-12-14T00:02:17;19.20;;;16.87;;
7813;SDS011;3952;48.364;16.022;2023-12-14T00:04:44;18.83;;;16.00;;
7813;SDS011;3952;48.364;16.022;2023-12-14T00:07:12;20.63;;;17.53;;
7813;SDS011;3952;48.364;16.022;2023-12-14T00:09:41;21.43;;;16.83;;
7813;SDS011;3952;48.364;16.022;2023-12-14T00:12:09;19.33;;;16.83;;
7813;SDS011;3952;48.364;16.022;2023-12-14T00:14:36;16.90;;;15.17;;
7813;SDS011;3952;48.364;16.022;2023-12-14T00:17:03;19.07;;;16.60;;
7813;SDS011;3952;48.364;16.022;2023-12-14T00:19:31;21.00;;;17.73;;
7813;SDS011;3952;48.364;16.022;2023-12-14T00:21:58;21.73;;;17.33;;
7813;SDS011;3952;48.364;16.022;2023-12-14T00:24:25;21.83;;;17.80;;
7813;SDS011;3952;48.364;16.022;2023-12-14T00:26:54;24.27;;;18.13;;
7813;SDS011;3952;48.364;16.022;2023-12-14T00:29:21;24.90;;;18.57;;
7813;SDS011;3952;48.364;16.022;2023-12-14T00:31:49;25.07;;;18.93;;
7813;SDS011;3952;48.364;16.022;2023-12-14T00:34:16;23.47;;;19.20;;
7813;SDS011;3952;48.364;16.022;2023-12-14T00:36:43;27.63;;;19.77;;
7813;SDS011;3952;48.364;16.022;2023-12-14T00:39:11;26.90;;;20.10;;
7813;SDS011;3952;48.364;16.022;2023-12-14T00:41:38;22.97;;;17.93;;
7813;SDS011;3952;48.364;16.022;2023-12-14T00:44:07;32.20;;;19.90;;
7813;SDS011;3952;48.364;16.022;2023-12-14T00:46:34;25.50;;;19.23;;
7813;SDS011;3952;48.364;16.022;2023-12-14T00:49:01;24.40;;;17.77;;
7813;SDS011;3952;48.364;16.022;2023-12-14T00:51:28;22.77;;;18.17;;
7813;SDS011;3952;48.364;16.022;2023-12-14T00:53:56;23.97;;;17.33;;
7813;SDS011;3952;48.364;16.022;2023-12-14T00:56:23;24.63;;;18.80;;
7813;SDS011;3952;48.364;16.022;2023-12-14T00:58:50;26.97;;;18.63;;
7813;SDS011;3952;48.364;16.022;2023-12-14T01:01:19;24.30;;;18.10;;
7813;SDS011;3952;48.364;16.022;2023-12-14T01:03:47;29.07;;;19.07;;
7813;SDS011;3952;48.364;16.022;2023-12-14T01:06:14;22.57;;;18.57;;
7813;SDS011;3952;48.364;16.022;2023-12-14T01:08:41;24.97;;;19.17;;
7813;SDS011;3952;48.364;16.022;2023-12-14T01:11:08;29.00;;;18.10;;
7813;SDS011;3952;48.364;16.022;2023-12-14T01:13:36;20.50;;;17.17;;
7813;SDS011;3952;48.364;16.022;2023-12-14T01:16:03;23.40;;;18.27;;
7813;SDS011;3952;48.364;16.022;2023-12-14T01:18:32;25.47;;;19.07;;
7813;SDS011;3952;48.364;16.022;2023-12-14T01:21:00;22.90;;;17.90;;
7813;SDS011;3952;48.364;16.022;2023-12-14T01:23:27;27.03;;;19.13;;
7813;SDS011;3952;48.364;16.022;2023-12-14T01:25:54;24.83;;;17.90;;
7813;SDS011;3952;48.364;16.022;2023-12-14T01:28:22;21.10;;;16.80;;
7813;SDS011;3952;48.364;16.022;2023-12-14T01:30:49;22.47;;;18.27;;
7813;SDS011;3952;48.364;16.022;2023-12-14T01:33:16;21.30;;;17.80;;
7813;SDS011;3952;48.364;16.022;2023-12-14T01:35:46;22.43;;;17.03;;
7813;SDS011;3952;48.364;16.022;2023-12-14T01:38:13;21.77;;;17.27;;
7813;SDS011;3952;48.364;16.022;2023-12-14T01:40:41;20.80;;;16.63;;
7813;SDS011;3952;48.364;16.022;2023-12-14T01:43:08;21.73;;;18.67;;
7813;SDS011;3952;48.364;16.022;2023-12-14T01:45:36;22.70;;;17.73;;
7813;SDS011;3952;48.364;16.022;2023-12-14T01:48:04;19.60;;;17.27;;
7813;SDS011;3952;48.364;16.022;2023-12-14T01:50:31;22.07;;;17.70;;
7813;SDS011;3952;48.364;16.022;2023-12-14T01:53:00;18.83;;;16.83;;
7813;SDS011;3952;48.364;16.022;2023-12-14T01:55:27;20.33;;;16.73;;
7813;SDS011;3952;48.364;16.022;2023-12-14T01:57:54;22.93;;;17.63;;
7813;SDS011;3952;48.364;16.022;2023-12-14T02:00:23;18.23;;;16.13;;
7813;SDS011;3952;48.364;16.022;2023-12-14T02:02:56;20.07;;;17.20;;
7813;SDS011;3952;48.364;16.022;2023-12-14T02:05:23;19.87;;;17.60;;
7813;SDS011;3952;48.364;16.022;2023-12-14T02:07:51;20.47;;;17.03;;
7813;SDS011;3952;48.364;16.022;2023-12-14T02:10:19;20.07;;;16.80;;
7813;SDS011;3952;48.364;16.022;2023-12-14T02:12:47;20.23;;;16.67;;
7813;SDS011;3952;48.364;16.022;2023-12-14T02:15:14;20.13;;;15.63;;
7813;SDS011;3952;48.364;16.022;2023-12-14T02:17:42;17.43;;;15.60;;
7813;SDS011;3952;48.364;16.022;2023-12-14T02:20:10;18.70;;;16.43;;
7813;SDS011;3952;48.364;16.022;2023-12-14T02:22:49;20.03;;;16.20;;
7813;SDS011;3952;48.364;16.022;2023-12-14T02:25:17;18.60;;;16.63;;
7813;SDS011;3952;48.364;16.022;2023-12-14T02:27:44;20.50;;;16.97;;
7813;SDS011;3952;48.364;16.022;2023-12-14T02:30:12;21.20;;;16.13;;
7813;SDS011;3952;48.364;16.022;2023-12-14T02:32:40;18.90;;;16.10;;
7813;SDS011;3952;48.364;16.022;2023-12-14T02:35:08;19.80;;;16.17;;
7813;SDS011;3952;48.364;16.022;2023-12-14T02:37:36;17.77;;;15.87;;
7813;SDS011;3952;48.364;16.022;2023-12-14T02:40:07;19.93;;;15.60;;
7813;SDS011;3952;48.364;16.022;2023-12-14T02:42:35;21.17;;;15.67;;
7813;SDS011;3952;48.364;16.022;2023-12-14T02:45:03;21.03;;;15.93;;
7813;SDS011;3952;48.364;16.022;2023-12-14T02:47:31;19.67;;;16.03;;
7813;SDS011;3952;48.364;16.022;2023-12-14T02:49:58;16.57;;;14.77;;
7813;SDS011;3952;48.364;16.022;2023-12-14T02:52:25;16.17;;;14.47;;
7813;SDS011;3952;48.364;16.022;2023-12-14T02:54:53;20.00;;;16.00;;
7813;SDS011;3952;48.364;16.022;2023-12-14T02:57:21;19.17;;;16.17;;
7813;SDS011;3952;48.364;16.022;2023-12-14T02:59:49;20.00;;;16.47;;
7813;SDS011;3952;48.364;16.022;2023-12-14T03:02:16;17.77;;;15.83;;
7813;SDS011;3952;48.364;16.022;2023-12-14T03:04:43;16.83;;;14.73;;
7813;SDS011;3952;48.364;16.022;2023-12-14T03:07:11;16.90;;;15.10;;
7813;SDS011;3952;48.364;16.022;2023-12-14T03:09:39;16.80;;;15.10;;
7813;SDS011;3952;48.364;16.022;2023-12-14T03:12:09;21.57;;;16.43;;
7813;SDS011;3952;48.364;16.022;2023-12-14T03:14:38;17.53;;;15.13;;
7813;SDS011;3952;48.364;16.022;2023-12-14T03:17:06;15.57;;;14.07;;
7813;SDS011;3952;48.364;16.022;2023-12-14T03:19:38;18.43;;;16.43;;
7813;SDS011;3952;48.364;16.022;2023-12-14T03:22:06;16.63;;;14.87;;
7813;SDS011;3952;48.364;16.022;2023-12-14T03:24:34;15.90;;;14.23;;
7813;SDS011;3952;48.364;16.022;2023-12-14T03:27:01;17.43;;;15.53;;
7813;SDS011;3952;48.364;16.022;2023-12-14T03:29:29;17.67;;;15.30;;
7813;SDS011;3952;48.364;16.022;2023-12-14T03:31:58;18.77;;;16.00;;
7813;SDS011;3952;48.364;16.022;2023-12-14T03:34:25;16.93;;;15.13;;
7813;SDS011;3952;48.364;16.022;2023-12-14T03:36:52;18.03;;;16.10;;
7813;SDS011;3952;48.364;16.022;2023-12-14T03:39:20;19.73;;;16.90;;
7813;SDS011;3952;48.364;16.022;2023-12-14T03:41:47;20.47;;;15.50;;
7813;SDS011;3952;48.364;16.022;2023-12-14T03:44:14;21.07;;;15.53;;
7813;SDS011;3952;48.364;16.022;2023-12-14T03:46:41;16.43;;;14.73;;
7813;SDS011;3952;48.364;16.022;2023-12-14T03:49:10;16.27;;;14.70;;
7813;SDS011;3952;48.364;16.022;2023-12-14T03:51:38;19.17;;;15.50;;
7813;SDS011;3952;48.364;16.022;2023-12-14T03:54:06;18.37;;;16.47;;
7813;SDS011;3952;48.364;16.022;2023-12-14T03:56:33;19.77;;;17.63;;
7813;SDS011;3952;48.364;16.022;2023-12-14T03:59:01;23.77;;;16.93;;
7813;SDS011;3952;48.364;16.022;2023-12-14T04:01:28;19.80;;;15.50;;
7813;SDS011;3952;48.364;16.022;2023-12-14T04:03:56;17.63;;;15.83;;
7813;SDS011;3952;48.364;16.022;2023-12-14T04:06:24;18.83;;;16.83;;
7813;SDS011;3952;48.364;16.022;2023-12-14T04:08:52;18.70;;;16.00;;
7813;SDS011;3952;48.364;16.022;2023-12-14T04:11:19;19.57;;;16.70;;
7813;SDS011;3952;48.364;16.022;2023-12-14T04:13:47;19.70;;;16.93;;
7813;SDS011;3952;48.364;16.022;2023-12-14T04:16:15;20.60;;;17.50;;
7813;SDS011;3952;48.364;16.022;2023-12-14T04:18:46;18.90;;;16.90;;
7813;SDS011;3952;48.364;16.022;2023-12-14T04:21:13;17.83;;;15.87;;
7813;SDS011;3952;48.364;16.022;2023-12-14T04:23:42;17.50;;;15.60;;
7813;SDS011;3952;48.364;16.022;2023-12-14T04:26:10;22.30;;;16.87;;
7813;SDS011;3952;48.364;16.022;2023-12-14T04:28:39;18.03;;;16.23;;
7813;SDS011;3952;48.364;16.022;2023-12-14T04:31:09;18.33;;;16.53;;
7813;SDS011;3952;48.364;16.022;2023-12-14T04:33:36;17.70;;;15.90;;
7813;SDS011;3952;48.364;16.022;2023-12-14T04:36:04;19.57;;;16.93;;
7813;SDS011;3952;48.364;16.022;2023-12-14T04:38:32;17.73;;;15.73;;
7813;SDS011;3952;48.364;16.022;2023-12-14T04:41:01;18.67;;;16.53;;
7813;SDS011;3952;48.364;16.022;2023-12-14T04:43:29;18.20;;;16.40;;
7813;SDS011;3952;48.364;16.022;2023-12-14T04:45:57;19.57;;;16.67;;
7813;SDS011;3952;48.364;16.022;2023-12-14T04:48:24;20.77;;;16.37;;
7813;SDS011;3952;48.364;16.022;2023-12-14T04:50:52;18.10;;;16.20;;
7813;SDS011;3952;48.364;16.022;2023-12-14T04:53:19;18.10;;;16.20;;
7813;SDS011;3952;48.364;16.022;2023-12-14T04:55:46;18.50;;;16.23;;
7813;SDS011;3952;48.364;16.022;2023-12-14T04:58:15;18.10;;;16.20;;
7813;SDS011;3952;48.364;16.022;2023-12-14T05:00:42;16.87;;;15.23;;
7813;SDS011;3952;48.364;16.022;2023-12-14T05:03:09;17.83;;;15.17;;
7813;SDS011;3952;48.364;16.022;2023-12-14T05:05:36;16.23;;;14.73;;
7813;SDS011;3952;48.364;16.022;2023-12-14T05:08:04;17.30;;;15.50;;
7813;SDS011;3952;48.364;16.022;2023-12-14T05:10:31;18.13;;;16.23;;
7813;SDS011;3952;48.364;16.022;2023-12-14T05:12:59;18.73;;;15.27;;
7813;SDS011;3952;48.364;16.022;2023-12-14T05:15:27;17.20;;;15.57;;
7813;SDS011;3952;48.364;16.022;2023-12-14T05:17:55;17.10;;;15.47;;
7813;SDS011;3952;48.364;16.022;2023-12-14T05:20:23;18.40;;;16.43;;
7813;SDS011;3952;48.364;16.022;2023-12-14T05:22:50;18.00;;;16.10;;
7813;SDS011;3952;48.364;16.022;2023-12-14T05:25:17;20.17;;;16.70;;
7813;SDS011;3952;48.364;16.022;2023-12-14T05:27:45;19.03;;;16.13;;
7813;SDS011;3952;48.364;16.022;2023-12-14T05:30:12;16.60;;;15.00;;
7813;SDS011;3952;48.364;16.022;2023-12-14T05:32:41;17.47;;;15.70;;
7813;SDS011;3952;48.364;16.022;2023-12-14T05:35:09;16.57;;;14.97;;
7813;SDS011;3952;48.364;16.022;2023-12-14T05:37:38;16.80;;;14.93;;
7813;SDS011;3952;48.364;16.022;2023-12-14T05:40:07;15.17;;;13.67;;
7813;SDS011;3952;48.364;16.022;2023-12-14T05:42:35;15.37;;;13.77;;
7813;SDS011;3952;48.364;16.022;2023-12-14T05:45:04;16.20;;;14.70;;
7813;SDS011;3952;48.364;16.022;2023-12-14T05:47:32;19.67;;;16.80;;
7813;SDS011;3952;48.364;16.022;2023-12-14T05:50:01;18.27;;;15.67;;
7813;SDS011;3952;48.364;16.022;2023-12-14T05:52:29;19.37;;;16.60;;
7813;SDS011;3952;48.364;16.022;2023-12-14T05:54:56;18.83;;;16.13;;
7813;SDS011;3952;48.364;16.022;2023-12-14T05:57:24;16.90;;;15.30;;
7813;SDS011;3952;48.364;16.022;2023-12-14T05:59:51;16.80;;;15.07;;
7813;SDS011;3952;48.364;16.022;2023-12-14T06:02:18;16.23;;;14.53;;
7813;SDS011;3952;48.364;16.022;2023-12-14T06:04:46;14.57;;;13.10;;
7813;SDS011;3952;48.364;16.022;2023-12-14T06:07:15;14.60;;;13.30;;
7813;SDS011;3952;48.364;16.022;2023-12-14T06:09:42;14.80;;;13.40;;
7813;SDS011;3952;48.364;16.022;2023-12-14T06:12:10;16.13;;;13.03;;
7813;SDS011;3952;48.364;16.022;2023-12-14T06:14:38;15.70;;;14.23;;
7813;SDS011;3952;48.364;16.022;2023-12-14T06:17:05;15.30;;;13.80;;
7813;SDS011;3952;48.364;16.022;2023-12-14T06:19:33;16.17;;;14.43;;
7813;SDS011;3952;48.364;16.022;2023-12-14T06:22:00;16.80;;;15.10;;
7813;SDS011;3952;48.364;16.022;2023-12-14T06:24:29;15.80;;;14.27;;
7813;SDS011;3952;48.364;16.022;2023-12-14T06:26:56;17.57;;;15.20;;
7813;SDS011;3952;48.364;16.022;2023-12-14T06:29:23;17.80;;;15.90;;
7813;SDS011;3952;48.364;16.022;2023-12-14T06:31:50;19.10;;;15.77;;
7813;SDS011;3952;48.364;16.022;2023-12-14T06:34:18;18.03;;;15.53;;
7813;SDS011;3952;48.364;16.022;2023-12-14T06:36:45;15.47;;;13.87;;
7813;SDS011;3952;48.364;16.022;2023-12-14T06:39:13;14.97;;;13.30;;
7813;SDS011;3952;48.364;16.022;2023-12-14T06:41:42;14.80;;;13.40;;
7813;SDS011;3952;48.364;16.022;2023-12-14T06:44:10;14.50;;;13.30;;
7813;SDS011;3952;48.364;16.022;2023-12-14T06:46:37;14.90;;;13.47;;
7813;SDS011;3952;48.364;16.022;2023-12-14T06:49:04;14.97;;;13.47;;
7813;SDS011;3952;48.364;16.022;2023-12-14T06:51:31;13.03;;;11.83;;
7813;SDS011;3952;48.364;16.022;2023-12-14T06:53:59;14.83;;;12.13;;
7813;SDS011;3952;48.364;16.022;2023-12-14T06:56:26;12.37;;;11.33;;
7813;SDS011;3952;48.364;16.022;2023-12-14T06:58:55;11.57;;;10.63;;
7813;SDS011;3952;48.364;16.022;2023-12-14T07:01:22;10.43;;;9.53;;
7813;SDS011;3952;48.364;16.022;2023-12-14T07:03:50;7.93;;;7.33;;
7813;SDS011;3952;48.364;16.022;2023-12-14T07:06:17;5.83;;;5.43;;
7813;SDS011;3952;48.364;16.022;2023-12-14T07:08:46;6.60;;;6.20;;
7813;SDS011;3952;48.364;16.022;2023-12-14T07:11:13;5.67;;;5.27;;
7813;SDS011;3952;48.364;16.022;2023-12-14T07:13:41;5.27;;;4.97;;
7813;SDS011;3952;48.364;16.022;2023-12-14T07:16:10;5.30;;;4.90;;
7813;SDS011;3952;48.364;16.022;2023-12-14T07:18:38;5.17;;;4.70;;
7813;SDS011;3952;48.364;16.022;2023-12-14T07:21:07;6.37;;;4.80;;
7813;SDS011;3952;48.364;16.022;2023-12-14T07:23:35;4.70;;;4.40;;
7813;SDS011;3952;48.364;16.022;2023-12-14T07:26:03;4.20;;;4.00;;
7813;SDS011;3952;48.364;16.022;2023-12-14T07:28:31;4.50;;;4.20;;
7813;SDS011;3952;48.364;16.022;2023-12-14T07:30:59;3.90;;;3.70;;
7813;SDS011;3952;48.364;16.022;2023-12-14T07:33:27;4.23;;;3.93;;
7813;SDS011;3952;48.364;16.022;2023-12-14T07:35:55;3.60;;;3.40;;
7813;SDS011;3952;48.364;16.022;2023-12-14T07:38:22;3.53;;;3.33;;
7813;SDS011;3952;48.364;16.022;2023-12-14T07:40:50;3.50;;;3.30;;
7813;SDS011;3952;48.364;16.022;2023-12-14T07:43:18;3.63;;;3.33;;
7813;SDS011;3952;48.364;16.022;2023-12-14T07:45:45;3.20;;;3.10;;
7813;SDS011;3952;48.364;16.022;2023-12-14T07:48:13;3.23;;;3.03;;
7813;SDS011;3952;48.364;16.022;2023-12-14T07:50:42;3.70;;;3.40;;
7813;SDS011;3952;48.364;16.022;2023-12-14T07:53:09;3.17;;;2.97;;
7813;SDS011;3952;48.364;16.022;2023-12-14T07:55:35;3.00;;;2.90;;
7813;SDS011;3952;48.364;16.022;2023-12-14T07:58:03;3.37;;;3.07;;
7813;SDS011;3952;48.364;16.022;2023-12-14T08:00:30;3.30;;;3.07;;
7813;SDS011;3952;48.364;16.022;2023-12-14T08:02:57;2.70;;;2.60;;
7813;SDS011;3952;48.364;16.022;2023-12-14T08:05:25;3.20;;;3.00;;
7813;SDS011;3952;48.364;16.022;2023-12-14T08:07:54;2.80;;;2.70;;
7813;SDS011;3952;48.364;16.022;2023-12-14T08:10:21;2.50;;;2.40;;
7813;SDS011;3952;48.364;16.022;2023-12-14T08:12:49;2.83;;;2.73;;
7813;SDS011;3952;48.364;16.022;2023-12-14T08:15:17;2.87;;;2.67;;
7813;SDS011;3952;48.364;16.022;2023-12-14T08:17:45;2.67;;;2.47;;
7813;SDS011;3952;48.364;16.022;2023-12-14T08:20:12;2.73;;;2.63;;
7813;SDS011;3952;48.364;16.022;2023-12-14T08:22:39;3.40;;;3.20;;
7813;SDS011;3952;48.364;16.022;2023-12-14T08:25:12;2.80;;;2.70;;
7813;SDS011;3952;48.364;16.022;2023-12-14T08:27:40;3.23;;;3.03;;
7813;SDS011;3952;48.364;16.022;2023-12-14T08:30:09;3.10;;;2.80;;
7813;SDS011;3952;48.364;16.022;2023-12-14T08:32:38;3.40;;;3.20;;
7813;SDS011;3952;48.364;16.022;2023-12-14T08:35:05;2.90;;;2.80;;
7813;SDS011;3952;48.364;16.022;2023-12-14T08:37:33;3.43;;;3.23;;
7813;SDS011;3952;48.364;16.022;2023-12-14T08:40:02;3.43;;;3.17;;
7813;SDS011;3952;48.364;16.022;2023-12-14T08:42:31;3.27;;;3.07;;
7813;SDS011;3952;48.364;16.022;2023-12-14T08:44:58;3.10;;;3.00;;
7813;SDS011;3952;48.364;16.022;2023-12-14T08:47:26;3.50;;;3.30;;
7813;SDS011;3952;48.364;16.022;2023-12-14T08:49:53;3.43;;;3.23;;
7813;SDS011;3952;48.364;16.022;2023-12-14T08:52:20;2.97;;;2.87;;
7813;SDS011;3952;48.364;16.022;2023-12-14T08:54:47;2.73;;;2.63;;
7813;SDS011;3952;48.364;16.022;2023-12-14T08:57:15;3.40;;;3.20;;
7813;SDS011;3952;48.364;16.022;2023-12-14T08:59:44;3.73;;;3.53;;
7813;SDS011;3952;48.364;16.022;2023-12-14T09:02:11;3.13;;;2.97;;
7813;SDS011;3952;48.364;16.022;2023-12-14T09:04:38;3.40;;;3.20;;
7813;SDS011;3952;48.364;16.022;2023-12-14T09:07:05;3.37;;;3.20;;
7813;SDS011;3952;48.364;16.022;2023-12-14T09:09:33;3.03;;;2.93;;
7813;SDS011;3952;48.364;16.022;2023-12-14T09:12:00;3.70;;;3.50;;
7813;SDS011;3952;48.364;16.022;2023-12-14T09:14:27;3.90;;;3.70;;
7813;SDS011;3952;48.364;16.022;2023-12-14T09:16:57;3.67;;;3.47;;
7813;SDS011;3952;48.364;16.022;2023-12-14T09:19:24;4.00;;;3.80;;
7813;SDS011;3952;48.364;16.022;2023-12-14T09:21:51;4.40;;;4.20;;
7813;SDS011;3952;48.364;16.022;2023-12-14T09:24:19;3.90;;;3.70;;
7813;SDS011;3952;48.364;16.022;2023-12-14T09:26:46;4.30;;;4.00;;
7813;SDS011;3952;48.364;16.022;2023-12-14T09:29:13;4.20;;;3.93;;
7813;SDS011;3952;48.364;16.022;2023-12-14T09:31:41;4.00;;;3.80;;
7813;SDS011;3952;48.364;16.022;2023-12-14T09:34:10;3.60;;;3.50;;
7813;SDS011;3952;48.364;16.022;2023-12-14T09:36:38;4.33;;;4.07;;
7813;SDS011;3952;48.364;16.022;2023-12-14T09:39:05;3.60;;;3.40;;
7813;SDS011;3952;48.364;16.022;2023-12-14T09:41:35;4.73;;;4.33;;
7813;SDS011;3952;48.364;16.022;2023-12-14T09:44:03;3.53;;;3.40;;
7813;SDS011;3952;48.364;16.022;2023-12-14T09:46:30;4.83;;;3.73;;
7813;SDS011;3952;48.364;16.022;2023-12-14T09:48:59;4.17;;;3.97;;
7813;SDS011;3952;48.364;16.022;2023-12-14T09:51:29;4.03;;;3.70;;
7813;SDS011;3952;48.364;16.022;2023-12-14T09:53:57;4.03;;;3.83;;
7813;SDS011;3952;48.364;16.022;2023-12-14T09:56:24;4.20;;;4.00;;
7813;SDS011;3952;48.364;16.022;2023-12-14T09:58:51;4.30;;;4.10;;
7813;SDS011;3952;48.364;16.022;2023-12-14T10:01:22;4.00;;;3.80;;
7813;SDS011;3952;48.364;16.022;2023-12-14T10:03:50;3.93;;;3.73;;
7813;SDS011;3952;48.364;16.022;2023-12-14T10:06:34;4.27;;;3.97;;
7813;SDS011;3952;48.364;16.022;2023-12-14T10:09:02;4.07;;;3.87;;
7813;SDS011;3952;48.364;16.022;2023-12-14T10:11:30;3.77;;;3.57;;
7813;SDS011;3952;48.364;16.022;2023-12-14T10:13:57;3.47;;;3.37;;
7813;SDS011;3952;48.364;16.022;2023-12-14T10:16:28;3.53;;;3.33;;
7813;SDS011;3952;48.364;16.022;2023-12-14T10:18:57;3.60;;;3.40;;
7813;SDS011;3952;48.364;16.022;2023-12-14T10:21:25;3.00;;;2.90;;
7813;SDS011;3952;48.364;16.022;2023-12-14T10:23:56;3.10;;;2.90;;
7813;SDS011;3952;48.364;16.022;2023-12-14T10:26:24;3.27;;;3.07;;
7813;SDS011;3952;48.364;16.022;2023-12-14T10:28:52;2.63;;;2.53;;
7813;SDS011;3952;48.364;16.022;2023-12-14T10:31:19;3.20;;;3.10;;
7813;SDS011;3952;48.364;16.022;2023-12-14T10:33:47;2.50;;;2.40;;
7813;SDS011;3952;48.364;16.022;2023-12-14T10:36:16;2.77;;;2.63;;
7813;SDS011;3952;48.364;16.022;2023-12-14T10:38:48;2.50;;;2.40;;
7813;SDS011;3952;48.364;16.022;2023-12-14T10:41:18;2.43;;;2.33;;
7813;SDS011;3952;48.364;16.022;2023-12-14T10:43:48;2.10;;;2.00;;
7813;SDS011;3952;48.364;16.022;2023-12-14T10:46:17;2.70;;;2.33;;
7813;SDS011;3952;48.364;16.022;2023-12-14T10:48:46;2.50;;;2.40;;
7813;SDS011;3952;48.364;16.022;2023-12-14T10:51:16;2.53;;;2.43;;
7813;SDS011;3952;48.364;16.022;2023-12-14T10:53:45;2.40;;;2.30;;
7813;SDS011;3952;48.364;16.022;2023-12-14T10:56:14;2.10;;;2.00;;
7813;SDS011;3952;48.364;16.022;2023-12-14T10:58:48;2.57;;;2.20;;
7813;SDS011;3952;48.364;16.022;2023-12-14T11:01:19;2.30;;;2.20;;
7813;SDS011;3952;48.364;16.022;2023-12-14T11:03:48;2.30;;;2.20;;
7813;SDS011;3952;48.364;16.022;2023-12-14T11:06:29;2.47;;;2.37;;
7813;SDS011;3952;48.364;16.022;2023-12-14T11:08:58;2.37;;;2.27;;
7813;SDS011;3952;48.364;16.022;2023-12-14T11:11:31;2.37;;;2.27;;
7813;SDS011;3952;48.364;16.022;2023-12-14T11:14:11;2.40;;;2.30;;
7813;SDS011;3952;48.364;16.022;2023-12-14T11:16:43;2.40;;;2.30;;
7813;SDS011;3952;48.364;16.022;2023-12-14T11:19:24;2.20;;;2.00;;
7813;SDS011;3952;48.364;16.022;2023-12-14T11:22:10;2.03;;;1.93;;
7813;SDS011;3952;48.364;16.022;2023-12-14T11:24:50;2.60;;;2.50;;
7813;SDS011;3952;48.364;16.022;2023-12-14T11:27:29;2.23;;;2.13;;
7813;SDS011;3952;48.364;16.022;2023-12-14T11:29:58;2.00;;;1.90;;
7813;SDS011;3952;48.364;16.022;2023-12-14T11:32:26;2.50;;;2.40;;
7813;SDS011;3952;48.364;16.022;2023-12-14T11:34:55;3.10;;;3.00;;
7813;SDS011;3952;48.364;16.022;2023-12-14T11:37:22;2.50;;;2.30;;
7813;SDS011;3952;48.364;16.022;2023-12-14T11:39:50;2.10;;;2.00;;
7813;SDS011;3952;48.364;16.022;2023-12-14T11:42:19;2.13;;;2.03;;
7813;SDS011;3952;48.364;16.022;2023-12-14T11:44:47;2.60;;;2.50;;
7813;SDS011;3952;48.364;16.022;2023-12-14T11:47:15;2.23;;;2.13;;
7813;SDS011;3952;48.364;16.022;2023-12-14T11:49:43;2.27;;;2.17;;
7813;SDS011;3952;48.364;16.022;2023-12-14T11:52:10;2.00;;;1.90;;
7813;SDS011;3952;48.364;16.022;2023-12-14T11:54:37;2.13;;;2.03;;
7813;SDS011;3952;48.364;16.022;2023-12-14T11:57:05;1.80;;;1.70;;
7813;SDS011;3952;48.364;16.022;2023-12-14T11:59:34;2.07;;;1.97;;
7813;SDS011;3952;48.364;16.022;2023-12-14T12:02:03;2.40;;;2.00;;
7813;SDS011;3952;48.364;16.022;2023-12-14T12:04:32;2.20;;;2.10;;
7813;SDS011;3952;48.364;16.022;2023-12-14T12:06:59;2.43;;;2.23;;
7813;SDS011;3952;48.364;16.022;2023-12-14T12:09:34;2.53;;;2.33;;
7813;SDS011;3952;48.364;16.022;2023-12-14T12:12:05;2.50;;;2.30;;
7813;SDS011;3952;48.364;16.022;2023-12-14T12:14:33;2.73;;;2.60;;
7813;SDS011;3952;48.364;16.022;2023-12-14T12:17:01;2.53;;;2.43;;
7813;SDS011;3952;48.364;16.022;2023-12-14T12:19:32;3.13;;;2.93;;
7813;SDS011;3952;48.364;16.022;2023-12-14T12:21:59;3.23;;;3.07;;
7813;SDS011;3952;48.364;16.022;2023-12-14T12:24:27;4.10;;;3.90;;
7813;SDS011;3952;48.364;16.022;2023-12-14T12:26:54;3.73;;;3.53;;
7813;SDS011;3952;48.364;16.022;2023-12-14T12:29:22;3.53;;;3.33;;
7813;SDS011;3952;48.364;16.022;2023-12-14T12:31:49;4.10;;;3.80;;
7813;SDS011;3952;48.364;16.022;2023-12-14T12:34:16;4.40;;;4.10;;
7813;SDS011;3952;48.364;16.022;2023-12-14T12:36:45;4.23;;;4.00;;
7813;SDS011;3952;48.364;16.022;2023-12-14T12:39:13;4.23;;;4.00;;
7813;SDS011;3952;48.364;16.022;2023-12-14T12:41:41;4.27;;;3.97;;
7813;SDS011;3952;48.364;16.022;2023-12-14T12:44:08;5.20;;;4.90;;
7813;SDS011;3952;48.364;16.022;2023-12-14T12:46:35;4.57;;;4.27;;
7813;SDS011;3952;48.364;16.022;2023-12-14T12:49:03;4.37;;;4.17;;
7813;SDS011;3952;48.364;16.022;2023-12-14T12:51:31;5.13;;;4.73;;
7813;SDS011;3952;48.364;16.022;2023-12-14T12:54:00;4.60;;;4.20;;
7813;SDS011;3952;48.364;16.022;2023-12-14T12:56:29;5.23;;;4.70;;
7813;SDS011;3952;48.364;16.022;2023-12-14T12:58:56;4.50;;;4.27;;
7813;SDS011;3952;48.364;16.022;2023-12-14T13:01:23;4.43;;;4.13;;
7813;SDS011;3952;48.364;16.022;2023-12-14T13:03:52;4.17;;;3.87;;
7813;SDS011;3952;48.364;16.022;2023-12-14T13:06:22;3.57;;;3.37;;
7813;SDS011;3952;48.364;16.022;2023-12-14T13:08:50;3.60;;;3.40;;
7813;SDS011;3952;48.364;16.022;2023-12-14T13:11:19;3.50;;;3.33;;
7813;SDS011;3952;48.364;16.022;2023-12-14T13:13:46;3.93;;;3.73;;
7813;SDS011;3952;48.364;16.022;2023-12-14T13:16:13;4.43;;;4.13;;
7813;SDS011;3952;48.364;16.022;2023-12-14T13:18:42;3.77;;;3.47;;
7813;SDS011;3952;48.364;16.022;2023-12-14T13:21:11;3.87;;;3.67;;
7813;SDS011;3952;48.364;16.022;2023-12-14T13:23:38;3.73;;;3.53;;
7813;SDS011;3952;48.364;16.022;2023-12-14T13:26:06;3.80;;;3.60;;
7813;SDS011;3952;48.364;16.022;2023-12-14T13:28:34;3.40;;;3.10;;
7813;SDS011;3952;48.364;16.022;2023-12-14T13:31:02;3.20;;;3.03;;
7813;SDS011;3952;48.364;16.022;2023-12-14T13:33:29;3.03;;;2.93;;
7813;SDS011;3952;48.364;16.022;2023-12-14T13:35:57;3.40;;;3.10;;
7813;SDS011;3952;48.364;16.022;2023-12-14T13:38:24;3.30;;;3.00;;
7813;SDS011;3952;48.364;16.022;2023-12-14T13:40:51;3.23;;;3.03;;
7813;SDS011;3952;48.364;16.022;2023-12-14T13:43:19;3.00;;;2.80;;
7813;SDS011;3952;48.364;16.022;2023-12-14T13:45:48;3.10;;;3.00;;
7813;SDS011;3952;48.364;16.022;2023-12-14T13:48:17;3.40;;;3.20;;
7813;SDS011;3952;48.364;16.022;2023-12-14T13:50:45;3.67;;;3.47;;
7813;SDS011;3952;48.364;16.022;2023-12-14T13:53:12;3.63;;;3.43;;
7813;SDS011;3952;48.364;16.022;2023-12-14T13:55:39;3.43;;;3.17;;
7813;SDS011;3952;48.364;16.022;2023-12-14T13:58:07;3.10;;;2.97;;
7813;SDS011;3952;48.364;16.022;2023-12-14T14:00:34;3.67;;;3.47;;
7813;SDS011;3952;48.364;16.022;2023-12-14T14:03:03;8.47;;;7.30;;
7813;SDS011;3952;48.364;16.022;2023-12-14T14:05:31;15.53;;;10.73;;
7813;SDS011;3952;48.364;16.022;2023-12-14T14:07:58;17.20;;;11.00;;
7813;SDS011;3952;48.364;16.022;2023-12-14T14:10:26;17.93;;;9.40;;
7813;SDS011;3952;48.364;16.022;2023-12-14T14:12:53;9.97;;;7.03;;
7813;SDS011;3952;48.364;16.022;2023-12-14T14:15:21;7.97;;;6.33;;
7813;SDS011;3952;48.364;16.022;2023-12-14T14:17:49;5.53;;;4.57;;
7813;SDS011;3952;48.364;16.022;2023-12-14T14:20:18;4.63;;;4.23;;
7813;SDS011;3952;48.364;16.022;2023-12-14T14:22:47;4.30;;;3.80;;
7813;SDS011;3952;48.364;16.022;2023-12-14T14:25:14;3.70;;;3.40;;
7813;SDS011;3952;48.364;16.022;2023-12-14T14:27:42;4.07;;;3.77;;
7813;SDS011;3952;48.364;16.022;2023-12-14T14:30:12;3.33;;;3.10;;
7813;SDS011;3952;48.364;16.022;2023-12-14T14:32:40;3.73;;;3.43;;
7813;SDS011;3952;48.364;16.022;2023-12-14T14:35:07;3.50;;;3.30;;
7813;SDS011;3952;48.364;16.022;2023-12-14T14:37:36;4.00;;;3.80;;
7813;SDS011;3952;48.364;16.022;2023-12-14T14:40:05;3.87;;;3.57;;
7813;SDS011;3952;48.364;16.022;2023-12-14T14:42:33;3.90;;;3.70;;
7813;SDS011;3952;48.364;16.022;2023-12-14T14:45:00;3.83;;;3.63;;
7813;SDS011;3952;48.364;16.022;2023-12-14T14:47:27;3.47;;;3.27;;
7813;SDS011;3952;48.364;16.022;2023-12-14T14:49:55;4.00;;;3.70;;
7813;SDS011;3952;48.364;16.022;2023-12-14T14:52:28;3.97;;;3.67;;
7813;SDS011;3952;48.364;16.022;2023-12-14T14:54:56;3.70;;;3.40;;